sensor_id;sensor_type;location;lat;lon;timestamp;temperature;humidity
64874;HTU21D;51367;45.204;38.576;2022-07-23T00:01:24;19.01;72.70
64874;HTU21D;51367;45.204;38.576;2022-07-23T00:03:50;19.01;72.72
64874;HTU21D;51367;45.204;38.576;2022-07-23T00:06:17;19.00;72.74
64874;HTU21D;51367;45.204;38.576;2022-07-23T00:08:43;19.00;72.77
64874;HTU21D;51367;45.204;38.576;2022-07-23T00:11:10;19.01;72.77
64874;HTU21D;51367;45.204;38.576;2022-07-23T00:13:36;19.01;72.77
64874;HTU21D;51367;45.204;38.576;2022-07-23T00:16:02;19.00;72.77
64874;HTU21D;51367;45.204;38.576;2022-07-23T00:18:28;19.00;72.79
64874;HTU21D;51367;45.204;38.576;2022-07-23T00:20:54;19.01;72.81
64874;HTU21D;51367;45.204;38.576;2022-07-23T00:23:21;19.00;72.83
64874;HTU21D;51367;45.204;38.576;2022-07-23T00:25:47;19.01;72.85
64874;HTU21D;51367;45.204;38.576;2022-07-23T00:28:13;19.01;72.89
64874;HTU21D;51367;45.204;38.576;2022-07-23T00:30:39;19.00;72.93
64874;HTU21D;51367;45.204;38.576;2022-07-23T00:33:07;19.00;72.98
64874;HTU21D;51367;45.204;38.576;2022-07-23T00:35:36;18.99;73.01
64874;HTU21D;51367;45.204;38.576;2022-07-23T00:38:03;19.00;73.02
64874;HTU21D;51367;45.204;38.576;2022-07-23T00:40:31;19.01;73.03
64874;HTU21D;51367;45.204;38.576;2022-07-23T00:42:57;19.01;73.05
64874;HTU21D;51367;45.204;38.576;2022-07-23T00:45:23;19.02;73.09
64874;HTU21D;51367;45.204;38.576;2022-07-23T00:47:49;19.03;73.08
64874;HTU21D;51367;45.204;38.576;2022-07-23T00:50:15;19.03;73.10
64874;HTU21D;51367;45.204;38.576;2022-07-23T00:52:41;19.05;73.12
64874;HTU21D;51367;45.204;38.576;2022-07-23T00:55:09;19.05;73.17
64874;HTU21D;51367;45.204;38.576;2022-07-23T00:57:35;19.05;73.28
64874;HTU21D;51367;45.204;38.576;2022-07-23T01:00:04;19.06;73.32
64874;HTU21D;51367;45.204;38.576;2022-07-23T01:02:31;19.06;73.34
64874;HTU21D;51367;45.204;38.576;2022-07-23T01:04:57;19.07;73.34
64874;HTU21D;51367;45.204;38.576;2022-07-23T01:07:23;19.10;73.38
64874;HTU21D;51367;45.204;38.576;2022-07-23T01:09:51;19.10;73.40
64874;HTU21D;51367;45.204;38.576;2022-07-23T01:12:17;19.11;73.42
64874;HTU21D;51367;45.204;38.576;2022-07-23T01:14:43;19.11;73.44
64874;HTU21D;51367;45.204;38.576;2022-07-23T01:17:09;19.11;73.45
64874;HTU21D;51367;45.204;38.576;2022-07-23T01:19:36;19.11;73.48
64874;HTU21D;51367;45.204;38.576;2022-07-23T01:22:03;19.10;73.49
64874;HTU21D;51367;45.204;38.576;2022-07-23T01:24:30;19.12;73.56
64874;HTU21D;51367;45.204;38.576;2022-07-23T01:27:00;19.10;73.57
64874;HTU21D;51367;45.204;38.576;2022-07-23T01:29:26;19.09;73.60
64874;HTU21D;51367;45.204;38.576;2022-07-23T01:31:54;19.07;73.67
64874;HTU21D;51367;45.204;38.576;2022-07-23T01:34:20;19.07;73.71
64874;HTU21D;51367;45.204;38.576;2022-07-23T01:36:46;19.06;73.77
64874;HTU21D;51367;45.204;38.576;2022-07-23T01:39:15;19.03;73.80
64874;HTU21D;51367;45.204;38.576;2022-07-23T01:41:41;19.00;73.84
64874;HTU21D;51367;45.204;38.576;2022-07-23T01:44:08;19.00;73.87
64874;HTU21D;51367;45.204;38.576;2022-07-23T01:46:34;19.00;73.90
64874;HTU21D;51367;45.204;38.576;2022-07-23T01:49:02;18.98;73.93
64874;HTU21D;51367;45.204;38.576;2022-07-23T01:51:46;18.97;73.97
64874;HTU21D;51367;45.204;38.576;2022-07-23T01:54:39;18.94;73.98
64874;HTU21D;51367;45.204;38.576;2022-07-23T01:57:07;18.92;74.02
64874;HTU21D;51367;45.204;38.576;2022-07-23T01:59:34;18.89;74.08
64874;HTU21D;51367;45.204;38.576;2022-07-23T02:02:00;18.86;74.10
64874;HTU21D;51367;45.204;38.576;2022-07-23T02:04:28;18.85;74.13
64874;HTU21D;51367;45.204;38.576;2022-07-23T02:06:54;18.81;74.19
64874;HTU21D;51367;45.204;38.576;2022-07-23T02:09:20;18.80;74.22
64874;HTU21D;51367;45.204;38.576;2022-07-23T02:11:46;18.79;74.24
64874;HTU21D;51367;45.204;38.576;2022-07-23T02:14:13;18.78;74.23
64874;HTU21D;51367;45.204;38.576;2022-07-23T02:16:39;18.78;74.21
64874;HTU21D;51367;45.204;38.576;2022-07-23T02:19:05;18.77;74.22
64874;HTU21D;51367;45.204;38.576;2022-07-23T02:21:31;18.74;74.23
64874;HTU21D;51367;45.204;38.576;2022-07-23T02:23:57;18.76;74.39
64874;HTU21D;51367;45.204;38.576;2022-07-23T02:26:23;18.71;74.31
64874;HTU21D;51367;45.204;38.576;2022-07-23T02:28:52;18.70;74.33
64874;HTU21D;51367;45.204;38.576;2022-07-23T02:31:21;18.67;74.34
64874;HTU21D;51367;45.204;38.576;2022-07-23T02:33:47;18.68;74.35
64874;HTU21D;51367;45.204;38.576;2022-07-23T02:36:15;18.67;74.36
64874;HTU21D;51367;45.204;38.576;2022-07-23T02:38:41;18.69;74.33
64874;HTU21D;51367;45.204;38.576;2022-07-23T02:41:08;18.69;74.33
64874;HTU21D;51367;45.204;38.576;2022-07-23T02:43:34;18.69;74.32
64874;HTU21D;51367;45.204;38.576;2022-07-23T02:46:00;18.72;74.32
64874;HTU21D;51367;45.204;38.576;2022-07-23T02:48:26;18.72;74.32
64874;HTU21D;51367;45.204;38.576;2022-07-23T02:50:52;18.73;74.35
64874;HTU21D;51367;45.204;38.576;2022-07-23T02:53:26;18.73;74.35
64874;HTU21D;51367;45.204;38.576;2022-07-23T02:55:52;18.76;74.37
64874;HTU21D;51367;45.204;38.576;2022-07-23T02:58:21;18.77;74.37
64874;HTU21D;51367;45.204;38.576;2022-07-23T03:00:47;18.79;74.38
64874;HTU21D;51367;45.204;38.576;2022-07-23T03:03:13;18.82;74.42
64874;HTU21D;51367;45.204;38.576;2022-07-23T03:05:41;18.85;74.38
64874;HTU21D;51367;45.204;38.576;2022-07-23T03:08:07;18.87;74.40
64874;HTU21D;51367;45.204;38.576;2022-07-23T03:10:36;18.92;74.35
64874;HTU21D;51367;45.204;38.576;2022-07-23T03:13:02;18.97;74.35
64874;HTU21D;51367;45.204;38.576;2022-07-23T03:15:28;19.01;74.34
64874;HTU21D;51367;45.204;38.576;2022-07-23T03:17:55;19.07;74.31
64874;HTU21D;51367;45.204;38.576;2022-07-23T03:20:21;19.12;74.28
64874;HTU21D;51367;45.204;38.576;2022-07-23T03:22:47;19.16;74.28
64874;HTU21D;51367;45.204;38.576;2022-07-23T03:25:15;19.22;74.34
64874;HTU21D;51367;45.204;38.576;2022-07-23T03:27:41;19.27;74.34
64874;HTU21D;51367;45.204;38.576;2022-07-23T03:30:09;19.36;74.35
64874;HTU21D;51367;45.204;38.576;2022-07-23T03:32:35;19.45;74.28
64874;HTU21D;51367;45.204;38.576;2022-07-23T03:35:01;19.53;74.25
64874;HTU21D;51367;45.204;38.576;2022-07-23T03:37:27;19.60;74.26
64874;HTU21D;51367;45.204;38.576;2022-07-23T03:39:56;19.70;74.25
64874;HTU21D;51367;45.204;38.576;2022-07-23T03:42:22;19.80;74.28
64874;HTU21D;51367;45.204;38.576;2022-07-23T03:44:48;19.91;74.30
64874;HTU21D;51367;45.204;38.576;2022-07-23T03:47:15;20.03;74.28
64874;HTU21D;51367;45.204;38.576;2022-07-23T03:49:44;20.18;74.25
64874;HTU21D;51367;45.204;38.576;2022-07-23T03:52:11;20.35;74.12
64874;HTU21D;51367;45.204;38.576;2022-07-23T03:54:37;20.55;73.88
64874;HTU21D;51367;45.204;38.576;2022-07-23T03:57:03;20.70;73.64
64874;HTU21D;51367;45.204;38.576;2022-07-23T03:59:29;20.81;73.57
64874;HTU21D;51367;45.204;38.576;2022-07-23T04:01:55;20.92;73.50
64874;HTU21D;51367;45.204;38.576;2022-07-23T04:04:21;21.04;73.48
64874;HTU21D;51367;45.204;38.576;2022-07-23T04:06:47;21.09;73.49
64874;HTU21D;51367;45.204;38.576;2022-07-23T04:09:14;21.11;73.45
64874;HTU21D;51367;45.204;38.576;2022-07-23T04:11:40;21.10;73.51
64874;HTU21D;51367;45.204;38.576;2022-07-23T04:14:07;21.07;73.59
64874;HTU21D;51367;45.204;38.576;2022-07-23T04:16:33;21.05;73.66
64874;HTU21D;51367;45.204;38.576;2022-07-23T04:18:59;21.07;73.89
64874;HTU21D;51367;45.204;38.576;2022-07-23T04:21:30;21.11;73.82
64874;HTU21D;51367;45.204;38.576;2022-07-23T04:23:56;21.19;73.82
64874;HTU21D;51367;45.204;38.576;2022-07-23T04:26:23;21.28;73.90
64874;HTU21D;51367;45.204;38.576;2022-07-23T04:28:49;21.33;74.29
64874;HTU21D;51367;45.204;38.576;2022-07-23T04:31:15;21.43;74.72
64874;HTU21D;51367;45.204;38.576;2022-07-23T04:33:42;21.59;74.78
64874;HTU21D;51367;45.204;38.576;2022-07-23T04:36:09;21.84;74.51
64874;HTU21D;51367;45.204;38.576;2022-07-23T04:38:35;22.07;74.06
64874;HTU21D;51367;45.204;38.576;2022-07-23T04:41:02;22.22;73.51
64874;HTU21D;51367;45.204;38.576;2022-07-23T04:43:28;22.27;73.33
64874;HTU21D;51367;45.204;38.576;2022-07-23T04:45:55;22.27;73.20
64874;HTU21D;51367;45.204;38.576;2022-07-23T04:48:21;22.27;73.34
64874;HTU21D;51367;45.204;38.576;2022-07-23T04:50:53;22.27;73.34
64874;HTU21D;51367;45.204;38.576;2022-07-23T04:53:22;22.31;73.38
64874;HTU21D;51367;45.204;38.576;2022-07-23T04:55:51;22.36;73.30
64874;HTU21D;51367;45.204;38.576;2022-07-23T04:58:17;22.46;73.22
64874;HTU21D;51367;45.204;38.576;2022-07-23T05:00:43;22.49;73.15
64874;HTU21D;51367;45.204;38.576;2022-07-23T05:03:10;22.48;73.10
64874;HTU21D;51367;45.204;38.576;2022-07-23T05:05:37;22.40;73.08
64874;HTU21D;51367;45.204;38.576;2022-07-23T05:08:11;22.33;73.33
64874;HTU21D;51367;45.204;38.576;2022-07-23T05:10:39;22.25;73.41
64874;HTU21D;51367;45.204;38.576;2022-07-23T05:13:05;22.25;73.61
64874;HTU21D;51367;45.204;38.576;2022-07-23T05:15:31;22.27;73.59
64874;HTU21D;51367;45.204;38.576;2022-07-23T05:17:57;22.33;73.57
64874;HTU21D;51367;45.204;38.576;2022-07-23T05:20:25;22.39;73.48
64874;HTU21D;51367;45.204;38.576;2022-07-23T05:22:51;22.47;73.31
64874;HTU21D;51367;45.204;38.576;2022-07-23T05:25:18;22.57;73.13
64874;HTU21D;51367;45.204;38.576;2022-07-23T05:27:44;22.70;72.91
64874;HTU21D;51367;45.204;38.576;2022-07-23T05:30:10;22.81;72.58
64874;HTU21D;51367;45.204;38.576;2022-07-23T05:32:40;22.91;72.42
64874;HTU21D;51367;45.204;38.576;2022-07-23T05:35:13;22.97;72.35
64874;HTU21D;51367;45.204;38.576;2022-07-23T05:37:45;23.03;72.18
64874;HTU21D;51367;45.204;38.576;2022-07-23T05:40:12;23.07;72.02
64874;HTU21D;51367;45.204;38.576;2022-07-23T05:42:39;23.05;71.96
64874;HTU21D;51367;45.204;38.576;2022-07-23T05:45:06;23.02;71.99
64874;HTU21D;51367;45.204;38.576;2022-07-23T05:47:41;23.01;72.00
64874;HTU21D;51367;45.204;38.576;2022-07-23T05:50:09;23.06;71.99
64874;HTU21D;51367;45.204;38.576;2022-07-23T05:52:49;23.10;71.77
64874;HTU21D;51367;45.204;38.576;2022-07-23T05:55:27;23.12;71.70
64874;HTU21D;51367;45.204;38.576;2022-07-23T05:57:56;23.09;71.71
64874;HTU21D;51367;45.204;38.576;2022-07-23T06:00:23;23.05;71.76
64874;HTU21D;51367;45.204;38.576;2022-07-23T06:02:49;22.99;71.89
64874;HTU21D;51367;45.204;38.576;2022-07-23T06:05:16;22.96;71.87
64874;HTU21D;51367;45.204;38.576;2022-07-23T06:07:44;22.92;71.88
64874;HTU21D;51367;45.204;38.576;2022-07-23T06:10:10;22.84;71.92
64874;HTU21D;51367;45.204;38.576;2022-07-23T06:12:36;22.79;72.03
64874;HTU21D;51367;45.204;38.576;2022-07-23T06:15:03;22.87;72.33
64874;HTU21D;51367;45.204;38.576;2022-07-23T06:17:31;23.09;72.36
64874;HTU21D;51367;45.204;38.576;2022-07-23T06:19:58;23.34;72.09
64874;HTU21D;51367;45.204;38.576;2022-07-23T06:22:24;23.59;71.74
64874;HTU21D;51367;45.204;38.576;2022-07-23T06:24:50;23.58;71.32
64874;HTU21D;51367;45.204;38.576;2022-07-23T06:27:19;23.47;71.07
64874;HTU21D;51367;45.204;38.576;2022-07-23T06:29:45;23.31;71.00
64874;HTU21D;51367;45.204;38.576;2022-07-23T06:32:11;23.21;71.42
64874;HTU21D;51367;45.204;38.576;2022-07-23T06:34:37;23.25;71.51
64874;HTU21D;51367;45.204;38.576;2022-07-23T06:37:03;23.36;71.16
64874;HTU21D;51367;45.204;38.576;2022-07-23T06:39:29;23.47;71.10
64874;HTU21D;51367;45.204;38.576;2022-07-23T06:41:57;23.67;70.77
64874;HTU21D;51367;45.204;38.576;2022-07-23T06:44:35;23.87;70.16
64874;HTU21D;51367;45.204;38.576;2022-07-23T06:47:01;23.99;69.60
64874;HTU21D;51367;45.204;38.576;2022-07-23T06:49:28;24.06;69.57
64874;HTU21D;51367;45.204;38.576;2022-07-23T06:51:57;24.09;69.05
64874;HTU21D;51367;45.204;38.576;2022-07-23T06:54:23;24.11;69.23
64874;HTU21D;51367;45.204;38.576;2022-07-23T06:56:50;24.16;69.13
64874;HTU21D;51367;45.204;38.576;2022-07-23T06:59:16;24.21;68.71
64874;HTU21D;51367;45.204;38.576;2022-07-23T07:01:42;24.31;68.45
64874;HTU21D;51367;45.204;38.576;2022-07-23T07:04:08;24.44;67.95
64874;HTU21D;51367;45.204;38.576;2022-07-23T07:06:34;24.55;67.03
64874;HTU21D;51367;45.204;38.576;2022-07-23T07:09:00;24.60;66.36
64874;HTU21D;51367;45.204;38.576;2022-07-23T07:11:26;24.64;66.24
64874;HTU21D;51367;45.204;38.576;2022-07-23T07:13:52;24.74;66.43
64874;HTU21D;51367;45.204;38.576;2022-07-23T07:16:19;24.87;66.11
64874;HTU21D;51367;45.204;38.576;2022-07-23T07:18:45;25.01;65.81
64874;HTU21D;51367;45.204;38.576;2022-07-23T07:21:11;25.05;65.75
64874;HTU21D;51367;45.204;38.576;2022-07-23T07:23:37;25.15;65.69
64874;HTU21D;51367;45.204;38.576;2022-07-23T07:26:03;25.21;65.66
64874;HTU21D;51367;45.204;38.576;2022-07-23T07:28:29;25.38;65.79
64874;HTU21D;51367;45.204;38.576;2022-07-23T07:30:55;25.56;64.73
64874;HTU21D;51367;45.204;38.576;2022-07-23T07:33:21;25.65;64.11
64874;HTU21D;51367;45.204;38.576;2022-07-23T07:35:47;25.66;63.24
64874;HTU21D;51367;45.204;38.576;2022-07-23T07:38:13;25.44;63.68
64874;HTU21D;51367;45.204;38.576;2022-07-23T07:40:39;25.32;64.13
64874;HTU21D;51367;45.204;38.576;2022-07-23T07:43:05;25.31;63.67
64874;HTU21D;51367;45.204;38.576;2022-07-23T07:45:32;25.30;63.65
64874;HTU21D;51367;45.204;38.576;2022-07-23T07:47:58;25.32;63.11
64874;HTU21D;51367;45.204;38.576;2022-07-23T07:50:24;25.35;62.95
64874;HTU21D;51367;45.204;38.576;2022-07-23T07:52:50;25.37;61.83
64874;HTU21D;51367;45.204;38.576;2022-07-23T07:55:17;25.35;61.49
64874;HTU21D;51367;45.204;38.576;2022-07-23T07:57:43;25.36;62.07
64874;HTU21D;51367;45.204;38.576;2022-07-23T08:00:10;25.39;61.99
64874;HTU21D;51367;45.204;38.576;2022-07-23T08:05:06;25.56;62.12
64874;HTU21D;51367;45.204;38.576;2022-07-23T08:07:33;25.59;61.30
64874;HTU21D;51367;45.204;38.576;2022-07-23T08:09:58;25.66;60.65
64874;HTU21D;51367;45.204;38.576;2022-07-23T08:12:24;25.68;60.51
64874;HTU21D;51367;45.204;38.576;2022-07-23T08:14:51;25.62;60.69
64874;HTU21D;51367;45.204;38.576;2022-07-23T08:17:17;25.62;60.44
64874;HTU21D;51367;45.204;38.576;2022-07-23T08:19:43;25.58;60.64
64874;HTU21D;51367;45.204;38.576;2022-07-23T08:22:09;25.56;60.57
64874;HTU21D;51367;45.204;38.576;2022-07-23T08:24:35;25.54;60.08
64874;HTU21D;51367;45.204;38.576;2022-07-23T08:27:01;25.45;59.67
64874;HTU21D;51367;45.204;38.576;2022-07-23T08:29:27;25.37;59.64
64874;HTU21D;51367;45.204;38.576;2022-07-23T08:31:53;25.44;59.73
64874;HTU21D;51367;45.204;38.576;2022-07-23T08:34:19;25.46;59.49
64874;HTU21D;51367;45.204;38.576;2022-07-23T08:36:45;25.49;59.31
64874;HTU21D;51367;45.204;38.576;2022-07-23T08:39:11;25.42;58.40
64874;HTU21D;51367;45.204;38.576;2022-07-23T08:41:39;25.35;58.93
64874;HTU21D;51367;45.204;38.576;2022-07-23T08:44:07;25.33;58.98
64874;HTU21D;51367;45.204;38.576;2022-07-23T08:46:35;25.34;59.13
64874;HTU21D;51367;45.204;38.576;2022-07-23T08:49:01;25.34;58.24
64874;HTU21D;51367;45.204;38.576;2022-07-23T08:51:28;25.30;58.77
64874;HTU21D;51367;45.204;38.576;2022-07-23T08:53:56;25.33;59.24
64874;HTU21D;51367;45.204;38.576;2022-07-23T08:56:23;25.48;59.45
64874;HTU21D;51367;45.204;38.576;2022-07-23T08:58:49;25.56;58.80
64874;HTU21D;51367;45.204;38.576;2022-07-23T09:01:15;25.56;58.34
64874;HTU21D;51367;45.204;38.576;2022-07-23T09:03:42;25.59;58.38
64874;HTU21D;51367;45.204;38.576;2022-07-23T09:06:10;25.59;58.24
64874;HTU21D;51367;45.204;38.576;2022-07-23T09:08:38;25.61;57.87
64874;HTU21D;51367;45.204;38.576;2022-07-23T09:11:09;25.64;58.06
64874;HTU21D;51367;45.204;38.576;2022-07-23T09:13:53;25.65;58.09
64874;HTU21D;51367;45.204;38.576;2022-07-23T09:16:30;25.71;58.14
64874;HTU21D;51367;45.204;38.576;2022-07-23T09:19:00;25.77;57.91
64874;HTU21D;51367;45.204;38.576;2022-07-23T09:21:30;25.80;58.03
64874;HTU21D;51367;45.204;38.576;2022-07-23T09:24:08;25.88;57.97
64874;HTU21D;51367;45.204;38.576;2022-07-23T09:26:48;25.88;57.59
64874;HTU21D;51367;45.204;38.576;2022-07-23T09:29:20;25.82;57.55
64874;HTU21D;51367;45.204;38.576;2022-07-23T09:31:55;25.81;57.84
64874;HTU21D;51367;45.204;38.576;2022-07-23T09:34:30;25.80;56.66
64874;HTU21D;51367;45.204;38.576;2022-07-23T09:39:39;25.64;56.85
64874;HTU21D;51367;45.204;38.576;2022-07-23T09:44:48;25.66;57.15
64874;HTU21D;51367;45.204;38.576;2022-07-23T09:47:15;25.77;57.29
64874;HTU21D;51367;45.204;38.576;2022-07-23T09:50:09;25.81;57.06
64874;HTU21D;51367;45.204;38.576;2022-07-23T09:52:47;25.74;57.02
64874;HTU21D;51367;45.204;38.576;2022-07-23T09:55:15;25.73;57.35
64874;HTU21D;51367;45.204;38.576;2022-07-23T09:57:42;25.77;56.93
64874;HTU21D;51367;45.204;38.576;2022-07-23T10:00:23;25.76;56.93
64874;HTU21D;51367;45.204;38.576;2022-07-23T10:02:49;25.81;57.15
64874;HTU21D;51367;45.204;38.576;2022-07-23T10:05:28;25.87;57.05
64874;HTU21D;51367;45.204;38.576;2022-07-23T10:08:17;25.81;57.10
64874;HTU21D;51367;45.204;38.576;2022-07-23T10:10:55;25.84;56.90
64874;HTU21D;51367;45.204;38.576;2022-07-23T10:13:44;25.89;56.93
64874;HTU21D;51367;45.204;38.576;2022-07-23T10:16:20;25.99;56.87
64874;HTU21D;51367;45.204;38.576;2022-07-23T10:18:47;26.03;56.64
64874;HTU21D;51367;45.204;38.576;2022-07-23T10:21:18;26.05;56.52
64874;HTU21D;51367;45.204;38.576;2022-07-23T10:24:01;26.03;56.76
64874;HTU21D;51367;45.204;38.576;2022-07-23T10:26:46;26.19;56.72
64874;HTU21D;51367;45.204;38.576;2022-07-23T10:35:09;26.12;55.72
64874;HTU21D;51367;45.204;38.576;2022-07-23T10:37:47;26.08;56.31
64874;HTU21D;51367;45.204;38.576;2022-07-23T10:40:17;26.15;55.74
64874;HTU21D;51367;45.204;38.576;2022-07-23T10:42:47;26.05;55.99
64874;HTU21D;51367;45.204;38.576;2022-07-23T10:47:50;25.93;56.48
64874;HTU21D;51367;45.204;38.576;2022-07-23T10:50:28;25.99;55.81
64874;HTU21D;51367;45.204;38.576;2022-07-23T10:57:58;25.78;56.19
64874;HTU21D;51367;45.204;38.576;2022-07-23T11:00:29;25.76;56.44
64874;HTU21D;51367;45.204;38.576;2022-07-23T11:02:58;25.89;56.62
64874;HTU21D;51367;45.204;38.576;2022-07-23T11:05:39;26.02;56.52
64874;HTU21D;51367;45.204;38.576;2022-07-23T11:13:44;26.48;56.17
64874;HTU21D;51367;45.204;38.576;2022-07-23T11:16:22;26.64;56.03
64874;HTU21D;51367;45.204;38.576;2022-07-23T11:18:58;26.80;55.86
64874;HTU21D;51367;45.204;38.576;2022-07-23T11:32:01;26.94;55.44
64874;HTU21D;51367;45.204;38.576;2022-07-23T11:34:35;26.95;55.02
64874;HTU21D;51367;45.204;38.576;2022-07-23T11:37:03;26.80;54.71
64874;HTU21D;51367;45.204;38.576;2022-07-23T11:39:31;26.64;55.20
64874;HTU21D;51367;45.204;38.576;2022-07-23T11:41:58;26.60;54.86
64874;HTU21D;51367;45.204;38.576;2022-07-23T11:44:36;26.48;55.07
64874;HTU21D;51367;45.204;38.576;2022-07-23T11:47:09;26.30;55.16
64874;HTU21D;51367;45.204;38.576;2022-07-23T11:49:37;26.11;55.71
64874;HTU21D;51367;45.204;38.576;2022-07-23T11:52:14;26.11;55.59
64874;HTU21D;51367;45.204;38.576;2022-07-23T11:57:14;26.02;55.91
64874;HTU21D;51367;45.204;38.576;2022-07-23T11:59:41;26.01;56.01
64874;HTU21D;51367;45.204;38.576;2022-07-23T12:02:08;26.11;56.16
64874;HTU21D;51367;45.204;38.576;2022-07-23T12:04:53;26.23;56.10
64874;HTU21D;51367;45.204;38.576;2022-07-23T12:07:34;26.34;55.87
64874;HTU21D;51367;45.204;38.576;2022-07-23T12:10:16;26.47;55.58
64874;HTU21D;51367;45.204;38.576;2022-07-23T12:12:44;26.61;55.07
64874;HTU21D;51367;45.204;38.576;2022-07-23T12:15:12;26.64;54.82
64874;HTU21D;51367;45.204;38.576;2022-07-23T12:17:42;26.64;54.84
64874;HTU21D;51367;45.204;38.576;2022-07-23T12:20:12;26.63;54.37
64874;HTU21D;51367;45.204;38.576;2022-07-23T12:22:41;26.63;54.13
64874;HTU21D;51367;45.204;38.576;2022-07-23T12:25:12;26.65;54.15
64874;HTU21D;51367;45.204;38.576;2022-07-23T12:27:39;26.67;54.04
64874;HTU21D;51367;45.204;38.576;2022-07-23T12:30:26;26.73;54.10
64874;HTU21D;51367;45.204;38.576;2022-07-23T12:32:54;26.77;53.81
64874;HTU21D;51367;45.204;38.576;2022-07-23T12:35:22;26.82;53.73
64874;HTU21D;51367;45.204;38.576;2022-07-23T12:37:50;26.92;53.85
64874;HTU21D;51367;45.204;38.576;2022-07-23T12:42:46;27.05;53.21
64874;HTU21D;51367;45.204;38.576;2022-07-23T12:45:12;27.04;53.12
64874;HTU21D;51367;45.204;38.576;2022-07-23T12:48:00;27.00;52.97
64874;HTU21D;51367;45.204;38.576;2022-07-23T12:50:40;26.98;53.10
64874;HTU21D;51367;45.204;38.576;2022-07-23T12:53:12;26.97;53.26
64874;HTU21D;51367;45.204;38.576;2022-07-23T12:55:40;27.02;53.18
64874;HTU21D;51367;45.204;38.576;2022-07-23T13:00:58;27.08;52.91
64874;HTU21D;51367;45.204;38.576;2022-07-23T13:03:27;27.15;52.62
64874;HTU21D;51367;45.204;38.576;2022-07-23T13:05:54;27.13;52.71
64874;HTU21D;51367;45.204;38.576;2022-07-23T13:08:21;27.16;52.72
64874;HTU21D;51367;45.204;38.576;2022-07-23T13:10:48;27.07;52.78
64874;HTU21D;51367;45.204;38.576;2022-07-23T13:13:19;26.95;52.90
64874;HTU21D;51367;45.204;38.576;2022-07-23T13:15:46;26.92;52.91
64874;HTU21D;51367;45.204;38.576;2022-07-23T13:18:12;26.92;53.15
64874;HTU21D;51367;45.204;38.576;2022-07-23T13:20:38;27.00;53.04
64874;HTU21D;51367;45.204;38.576;2022-07-23T13:23:08;27.06;52.64
64874;HTU21D;51367;45.204;38.576;2022-07-23T13:25:34;27.06;52.40
64874;HTU21D;51367;45.204;38.576;2022-07-23T13:28:00;27.04;52.94
64874;HTU21D;51367;45.204;38.576;2022-07-23T13:30:27;27.11;52.72
64874;HTU21D;51367;45.204;38.576;2022-07-23T13:32:53;27.16;52.59
64874;HTU21D;51367;45.204;38.576;2022-07-23T13:35:19;27.19;52.68
64874;HTU21D;51367;45.204;38.576;2022-07-23T13:37:45;27.17;52.12
64874;HTU21D;51367;45.204;38.576;2022-07-23T13:40:11;27.14;52.34
64874;HTU21D;51367;45.204;38.576;2022-07-23T13:42:37;27.15;52.52
64874;HTU21D;51367;45.204;38.576;2022-07-23T13:45:05;27.16;51.65
64874;HTU21D;51367;45.204;38.576;2022-07-23T13:47:31;27.15;51.90
64874;HTU21D;51367;45.204;38.576;2022-07-23T13:49:58;27.05;51.82
64874;HTU21D;51367;45.204;38.576;2022-07-23T13:52:24;27.01;52.27
64874;HTU21D;51367;45.204;38.576;2022-07-23T13:54:50;27.06;52.17
64874;HTU21D;51367;45.204;38.576;2022-07-23T13:57:17;27.08;52.05
64874;HTU21D;51367;45.204;38.576;2022-07-23T13:59:43;27.06;52.16
64874;HTU21D;51367;45.204;38.576;2022-07-23T14:02:09;27.07;52.25
64874;HTU21D;51367;45.204;38.576;2022-07-23T14:04:35;27.01;51.92
64874;HTU21D;51367;45.204;38.576;2022-07-23T14:07:01;26.93;51.96
64874;HTU21D;51367;45.204;38.576;2022-07-23T14:09:27;26.86;51.95
64874;HTU21D;51367;45.204;38.576;2022-07-23T14:11:55;26.85;52.04
64874;HTU21D;51367;45.204;38.576;2022-07-23T14:14:21;26.89;52.29
64874;HTU21D;51367;45.204;38.576;2022-07-23T14:16:47;26.95;52.32
64874;HTU21D;51367;45.204;38.576;2022-07-23T14:19:13;26.99;52.02
64874;HTU21D;51367;45.204;38.576;2022-07-23T14:21:39;26.94;52.20
64874;HTU21D;51367;45.204;38.576;2022-07-23T14:24:05;26.79;52.42
64874;HTU21D;51367;45.204;38.576;2022-07-23T14:26:31;26.69;52.84
64874;HTU21D;51367;45.204;38.576;2022-07-23T14:28:57;26.68;52.88
64874;HTU21D;51367;45.204;38.576;2022-07-23T14:31:23;26.67;52.82
64874;HTU21D;51367;45.204;38.576;2022-07-23T14:33:50;26.64;52.78
64874;HTU21D;51367;45.204;38.576;2022-07-23T14:36:16;26.58;52.81
64874;HTU21D;51367;45.204;38.576;2022-07-23T14:38:42;26.56;52.59
64874;HTU21D;51367;45.204;38.576;2022-07-23T14:41:08;26.48;52.80
64874;HTU21D;51367;45.204;38.576;2022-07-23T14:43:35;26.48;52.80
64874;HTU21D;51367;45.204;38.576;2022-07-23T14:46:01;26.47;52.98
64874;HTU21D;51367;45.204;38.576;2022-07-23T14:48:27;26.46;52.87
64874;HTU21D;51367;45.204;38.576;2022-07-23T14:50:53;26.43;53.07
64874;HTU21D;51367;45.204;38.576;2022-07-23T14:53:19;26.43;53.17
64874;HTU21D;51367;45.204;38.576;2022-07-23T14:55:45;26.46;52.97
64874;HTU21D;51367;45.204;38.576;2022-07-23T14:58:11;26.43;53.04
64874;HTU21D;51367;45.204;38.576;2022-07-23T15:00:37;26.43;53.07
64874;HTU21D;51367;45.204;38.576;2022-07-23T15:03:03;26.42;52.99
64874;HTU21D;51367;45.204;38.576;2022-07-23T15:05:29;26.37;53.07
64874;HTU21D;51367;45.204;38.576;2022-07-23T15:07:56;26.28;53.19
64874;HTU21D;51367;45.204;38.576;2022-07-23T15:10:22;26.19;53.39
64874;HTU21D;51367;45.204;38.576;2022-07-23T15:12:49;26.15;53.41
64874;HTU21D;51367;45.204;38.576;2022-07-23T15:15:15;26.08;53.49
64874;HTU21D;51367;45.204;38.576;2022-07-23T15:17:43;25.99;53.68
64874;HTU21D;51367;45.204;38.576;2022-07-23T15:20:10;25.93;53.90
64874;HTU21D;51367;45.204;38.576;2022-07-23T15:22:36;25.91;53.91
64874;HTU21D;51367;45.204;38.576;2022-07-23T15:25:02;25.87;54.02
64874;HTU21D;51367;45.204;38.576;2022-07-23T15:27:28;25.79;54.17
64874;HTU21D;51367;45.204;38.576;2022-07-23T15:29:54;25.73;54.28
64874;HTU21D;51367;45.204;38.576;2022-07-23T15:32:20;25.67;54.49
64874;HTU21D;51367;45.204;38.576;2022-07-23T15:34:46;25.65;54.58
64874;HTU21D;51367;45.204;38.576;2022-07-23T15:37:12;25.63;54.69
64874;HTU21D;51367;45.204;38.576;2022-07-23T15:39:38;25.61;54.71
64874;HTU21D;51367;45.204;38.576;2022-07-23T15:42:04;25.54;54.58
64874;HTU21D;51367;45.204;38.576;2022-07-23T15:44:30;25.42;54.63
64874;HTU21D;51367;45.204;38.576;2022-07-23T15:46:57;25.34;54.87
64874;HTU21D;51367;45.204;38.576;2022-07-23T15:49:23;25.30;55.00
64874;HTU21D;51367;45.204;38.576;2022-07-23T15:51:49;25.28;55.09
64874;HTU21D;51367;45.204;38.576;2022-07-23T15:54:15;25.20;55.26